sensor_id;sensor_type;location;lat;lon;timestamp;pressure;altitude;pressure_sealevel;temperature;humidity
71361;BME280;59166;48.908;1.870;2023-04-26T00:03:09;100569.47;;;7.31;77.87
71361;BME280;59166;48.908;1.870;2023-04-26T00:08:10;100553.81;;;7.27;77.09
71361;BME280;59166;48.908;1.870;2023-04-26T00:13:12;100552.06;;;7.21;77.37
71361;BME280;59166;48.908;1.870;2023-04-26T00:18:12;100550.22;;;7.22;77.61
71361;BME280;59166;48.908;1.870;2023-04-26T00:23:13;100549.72;;;7.13;78.69
71361;BME280;59166;48.908;1.870;2023-04-26T00:28:15;100549.13;;;7.00;80.15
71361;BME280;59166;48.908;1.870;2023-04-26T00:33:16;100532.28;;;6.93;79.68
71361;BME280;59166;48.908;1.870;2023-04-26T00:38:17;100537.53;;;6.88;80.49
71361;BME280;59166;48.908;1.870;2023-04-26T00:43:19;100528.88;;;6.86;80.59
71361;BME280;59166;48.908;1.870;2023-04-26T00:48:20;100531.56;;;6.74;81.49
71361;BME280;59166;48.908;1.870;2023-04-26T00:53:21;100520.66;;;6.69;82.76
71361;BME280;59166;48.908;1.870;2023-04-26T00:58:24;100510.38;;;6.54;83.28
71361;BME280;59166;48.908;1.870;2023-04-26T01:03:25;100501.97;;;6.51;82.76
71361;BME280;59166;48.908;1.870;2023-04-26T01:08:26;100513.56;;;6.45;83.21
71361;BME280;59166;48.908;1.870;2023-04-26T01:13:31;100506.06;;;6.35;83.66
71361;BME280;59166;48.908;1.870;2023-04-26T01:18:31;100499.38;;;6.26;84.75
71361;BME280;59166;48.908;1.870;2023-04-26T01:23:34;100495.50;;;6.22;84.74
71361;BME280;59166;48.908;1.870;2023-04-26T01:28:34;100496.06;;;6.12;85.70
71361;BME280;59166;48.908;1.870;2023-04-26T01:33:35;100493.69;;;6.04;86.56
71361;BME280;59166;48.908;1.870;2023-04-26T01:38:37;100482.94;;;6.04;86.22
71361;BME280;59166;48.908;1.870;2023-04-26T01:43:38;100503.91;;;5.96;87.33
71361;BME280;59166;48.908;1.870;2023-04-26T01:48:39;100493.28;;;5.89;87.91
71361;BME280;59166;48.908;1.870;2023-04-26T01:53:41;100495.59;;;5.86;89.24
71361;BME280;59166;48.908;1.870;2023-04-26T01:58:42;100476.91;;;5.79;88.62
71361;BME280;59166;48.908;1.870;2023-04-26T02:03:43;100472.34;;;5.80;88.58
71361;BME280;59166;48.908;1.870;2023-04-26T02:08:45;100481.44;;;5.79;87.56
71361;BME280;59166;48.908;1.870;2023-04-26T02:13:46;100482.72;;;5.76;88.41
71361;BME280;59166;48.908;1.870;2023-04-26T02:18:47;100484.94;;;5.79;87.39
71361;BME280;59166;48.908;1.870;2023-04-26T02:23:49;100466.38;;;5.78;87.14
71361;BME280;59166;48.908;1.870;2023-04-26T02:28:50;100473.84;;;5.75;88.14
71361;BME280;59166;48.908;1.870;2023-04-26T02:33:51;100471.91;;;5.83;87.81
71361;BME280;59166;48.908;1.870;2023-04-26T02:38:53;100479.13;;;5.82;87.61
71361;BME280;59166;48.908;1.870;2023-04-26T02:43:54;100476.94;;;5.91;87.13
71361;BME280;59166;48.908;1.870;2023-04-26T02:48:55;100483.75;;;5.93;86.11
71361;BME280;59166;48.908;1.870;2023-04-26T02:53:57;100468.09;;;5.90;86.75
71361;BME280;59166;48.908;1.870;2023-04-26T02:58:58;100466.91;;;5.86;87.51
71361;BME280;59166;48.908;1.870;2023-04-26T03:03:59;100457.00;;;5.87;87.49
71361;BME280;59166;48.908;1.870;2023-04-26T03:09:01;100451.59;;;6.05;86.50
71361;BME280;59166;48.908;1.870;2023-04-26T03:14:02;100446.47;;;6.03;86.63
71361;BME280;59166;48.908;1.870;2023-04-26T03:19:02;100460.16;;;6.13;86.61
71361;BME280;59166;48.908;1.870;2023-04-26T03:24:05;100462.22;;;6.11;86.71
71361;BME280;59166;48.908;1.870;2023-04-26T03:29:06;100455.25;;;6.10;86.31
71361;BME280;59166;48.908;1.870;2023-04-26T03:34:07;100461.41;;;6.11;86.52
71361;BME280;59166;48.908;1.870;2023-04-26T03:39:09;100454.06;;;6.06;86.76
71361;BME280;59166;48.908;1.870;2023-04-26T03:44:13;100451.69;;;5.98;87.77
71361;BME280;59166;48.908;1.870;2023-04-26T03:49:14;100450.97;;;5.91;87.86
71361;BME280;59166;48.908;1.870;2023-04-26T03:54:16;100444.44;;;5.87;87.97
71361;BME280;59166;48.908;1.870;2023-04-26T03:59:17;100442.47;;;5.94;87.26
71361;BME280;59166;48.908;1.870;2023-04-26T04:04:17;100454.25;;;5.93;88.28
71361;BME280;59166;48.908;1.870;2023-04-26T04:09:20;100443.16;;;5.90;89.45
71361;BME280;59166;48.908;1.870;2023-04-26T04:14:20;100457.13;;;5.92;87.33
71361;BME280;59166;48.908;1.870;2023-04-26T04:19:21;100446.78;;;5.95;87.01
71361;BME280;59166;48.908;1.870;2023-04-26T04:24:23;100450.97;;;5.91;87.55
71361;BME280;59166;48.908;1.870;2023-04-26T04:29:24;100445.88;;;6.01;86.91
71361;BME280;59166;48.908;1.870;2023-04-26T04:34:25;100452.75;;;5.97;87.71
71361;BME280;59166;48.908;1.870;2023-04-26T04:39:28;100450.59;;;5.88;87.50
71361;BME280;59166;48.908;1.870;2023-04-26T04:44:29;100431.47;;;5.84;88.33
71361;BME280;59166;48.908;1.870;2023-04-26T04:49:30;100436.78;;;6.02;86.30
71361;BME280;59166;48.908;1.870;2023-04-26T04:54:32;100442.88;;;6.09;86.71
71361;BME280;59166;48.908;1.870;2023-04-26T04:59:33;100442.88;;;6.09;87.84
71361;BME280;59166;48.908;1.870;2023-04-26T05:04:34;100437.38;;;6.04;89.98
71361;BME280;59166;48.908;1.870;2023-04-26T05:09:36;100446.94;;;6.00;90.40
71361;BME280;59166;48.908;1.870;2023-04-26T05:14:37;100444.53;;;6.10;88.59
71361;BME280;59166;48.908;1.870;2023-04-26T05:19:38;100450.44;;;6.31;87.13
71361;BME280;59166;48.908;1.870;2023-04-26T05:24:40;100452.19;;;6.37;85.91
71361;BME280;59166;48.908;1.870;2023-04-26T05:29:43;100443.53;;;6.35;88.47
71361;BME280;59166;48.908;1.870;2023-04-26T05:34:44;100447.28;;;6.45;85.69
71361;BME280;59166;48.908;1.870;2023-04-26T05:39:46;100444.19;;;6.48;84.69
71361;BME280;59166;48.908;1.870;2023-04-26T05:44:47;100447.84;;;6.54;85.29
71361;BME280;59166;48.908;1.870;2023-04-26T05:49:48;100456.09;;;6.52;85.27
71361;BME280;59166;48.908;1.870;2023-04-26T05:54:50;100457.19;;;6.63;85.47
71361;BME280;59166;48.908;1.870;2023-04-26T05:59:51;100460.00;;;6.68;86.23
71361;BME280;59166;48.908;1.870;2023-04-26T06:04:52;100469.91;;;6.79;86.21
71361;BME280;59166;48.908;1.870;2023-04-26T06:09:54;100467.00;;;6.92;85.29
71361;BME280;59166;48.908;1.870;2023-04-26T06:14:55;100466.81;;;7.05;84.11
71361;BME280;59166;48.908;1.870;2023-04-26T06:19:56;100464.94;;;7.17;82.80
71361;BME280;59166;48.908;1.870;2023-04-26T06:24:58;100462.94;;;7.24;83.01
71361;BME280;59166;48.908;1.870;2023-04-26T06:29:59;100475.19;;;7.44;84.84
71361;BME280;59166;48.908;1.870;2023-04-26T06:35:00;100468.97;;;7.55;83.45
71361;BME280;59166;48.908;1.870;2023-04-26T06:40:03;100471.06;;;7.64;84.49
71361;BME280;59166;48.908;1.870;2023-04-26T06:45:05;100472.44;;;7.78;82.46
71361;BME280;59166;48.908;1.870;2023-04-26T06:50:08;100471.59;;;7.90;82.15
71361;BME280;59166;48.908;1.870;2023-04-26T06:55:10;100481.94;;;8.09;82.96
71361;BME280;59166;48.908;1.870;2023-04-26T07:00:12;100484.28;;;8.34;78.94
71361;BME280;59166;48.908;1.870;2023-04-26T07:05:13;100486.38;;;8.44;78.85
71361;BME280;59166;48.908;1.870;2023-04-26T07:10:16;100483.94;;;8.59;78.35
71361;BME280;59166;48.908;1.870;2023-04-26T07:15:16;100481.25;;;8.75;79.10
71361;BME280;59166;48.908;1.870;2023-04-26T07:20:17;100478.03;;;8.90;79.28
71361;BME280;59166;48.908;1.870;2023-04-26T07:25:19;100473.78;;;9.11;75.32
71361;BME280;59166;48.908;1.870;2023-04-26T07:30:20;100467.72;;;9.20;76.37
71361;BME280;59166;48.908;1.870;2023-04-26T07:35:21;100473.59;;;9.17;76.02
71361;BME280;59166;48.908;1.870;2023-04-26T07:40:23;100465.72;;;9.32;77.77
71361;BME280;59166;48.908;1.870;2023-04-26T07:45:24;100467.00;;;9.47;76.67
71361;BME280;59166;48.908;1.870;2023-04-26T07:50:25;100464.16;;;9.75;76.43
71361;BME280;59166;48.908;1.870;2023-04-26T07:55:27;100468.47;;;9.98;75.30
71361;BME280;59166;48.908;1.870;2023-04-26T08:00:28;100474.00;;;10.08;74.33
71361;BME280;59166;48.908;1.870;2023-04-26T08:05:29;100476.88;;;10.50;75.13
71361;BME280;59166;48.908;1.870;2023-04-26T08:10:31;100472.09;;;10.57;72.20
71361;BME280;59166;48.908;1.870;2023-04-26T08:15:32;100455.81;;;10.52;72.88
71361;BME280;59166;48.908;1.870;2023-04-26T08:20:33;100453.50;;;10.65;72.89
71361;BME280;59166;48.908;1.870;2023-04-26T08:25:35;100458.50;;;10.78;71.03
71361;BME280;59166;48.908;1.870;2023-04-26T08:30:36;100453.19;;;10.62;72.03
71361;BME280;59166;48.908;1.870;2023-04-26T08:35:37;100454.88;;;10.68;71.51
71361;BME280;59166;48.908;1.870;2023-04-26T08:40:40;100459.34;;;10.84;69.76
71361;BME280;59166;48.908;1.870;2023-04-26T08:45:44;100455.19;;;11.03;70.94
71361;BME280;59166;48.908;1.870;2023-04-26T08:50:46;100453.63;;;11.12;69.30
71361;BME280;59166;48.908;1.870;2023-04-26T08:55:49;100457.44;;;11.16;67.73
71361;BME280;59166;48.908;1.870;2023-04-26T09:00:51;100466.75;;;11.35;69.79
71361;BME280;59166;48.908;1.870;2023-04-26T09:05:52;100458.13;;;11.38;67.86
71361;BME280;59166;48.908;1.870;2023-04-26T09:10:58;100459.88;;;11.60;67.59
71361;BME280;59166;48.908;1.870;2023-04-26T09:16:01;100444.50;;;11.75;67.57
71361;BME280;59166;48.908;1.870;2023-04-26T09:21:04;100443.81;;;12.05;64.75
71361;BME280;59166;48.908;1.870;2023-04-26T09:26:16;100448.13;;;12.01;65.02
71361;BME280;59166;48.908;1.870;2023-04-26T09:31:35;100448.16;;;12.16;66.30
71361;BME280;59166;48.908;1.870;2023-04-26T09:36:49;100447.19;;;12.43;64.42
71361;BME280;59166;48.908;1.870;2023-04-26T09:41:52;100442.06;;;12.56;63.07
71361;BME280;59166;48.908;1.870;2023-04-26T09:46:59;100433.13;;;12.76;63.00
71361;BME280;59166;48.908;1.870;2023-04-26T09:52:02;100422.22;;;13.01;61.90
71361;BME280;59166;48.908;1.870;2023-04-26T09:57:05;100416.53;;;13.13;62.77
71361;BME280;59166;48.908;1.870;2023-04-26T10:02:12;100422.22;;;13.11;60.77
71361;BME280;59166;48.908;1.870;2023-04-26T10:07:14;100428.44;;;13.27;62.48
71361;BME280;59166;48.908;1.870;2023-04-26T10:12:18;100425.13;;;13.50;61.24
71361;BME280;59166;48.908;1.870;2023-04-26T10:17:19;100432.06;;;13.81;58.84
71361;BME280;59166;48.908;1.870;2023-04-26T10:22:22;100421.44;;;13.90;57.64
71361;BME280;59166;48.908;1.870;2023-04-26T10:27:47;100422.56;;;13.84;58.49
71361;BME280;59166;48.908;1.870;2023-04-26T10:33:15;100426.38;;;13.88;55.96
71361;BME280;59166;48.908;1.870;2023-04-26T10:38:15;100427.91;;;13.99;57.36
71361;BME280;59166;48.908;1.870;2023-04-26T10:43:30;100420.16;;;14.26;54.68
71361;BME280;59166;48.908;1.870;2023-04-26T10:48:31;100416.69;;;14.55;55.00
71361;BME280;59166;48.908;1.870;2023-04-26T10:53:56;100406.41;;;14.47;53.45
71361;BME280;59166;48.908;1.870;2023-04-26T10:59:08;100410.38;;;14.25;55.53
71361;BME280;59166;48.908;1.870;2023-04-26T11:04:10;100406.94;;;14.10;56.93
71361;BME280;59166;48.908;1.870;2023-04-26T11:09:34;100401.31;;;13.96;55.70
71361;BME280;59166;48.908;1.870;2023-04-26T11:14:37;100395.94;;;13.86;57.13
71361;BME280;59166;48.908;1.870;2023-04-26T11:19:40;100393.31;;;13.71;56.87
71361;BME280;59166;48.908;1.870;2023-04-26T11:24:44;100392.19;;;13.77;59.36
71361;BME280;59166;48.908;1.870;2023-04-26T11:29:48;100398.09;;;13.89;59.71
71361;BME280;59166;48.908;1.870;2023-04-26T11:34:49;100394.28;;;13.90;58.30
71361;BME280;59166;48.908;1.870;2023-04-26T11:39:49;100391.34;;;13.81;55.33
71361;BME280;59166;48.908;1.870;2023-04-26T11:44:52;100383.69;;;13.88;56.46
71361;BME280;59166;48.908;1.870;2023-04-26T11:49:53;100383.44;;;14.29;57.57
71361;BME280;59166;48.908;1.870;2023-04-26T11:55:22;100384.00;;;14.65;59.07
71361;BME280;59166;48.908;1.870;2023-04-26T12:00:25;100370.00;;;14.76;54.07
71361;BME280;59166;48.908;1.870;2023-04-26T12:05:27;100376.03;;;14.73;56.99
71361;BME280;59166;48.908;1.870;2023-04-26T12:10:31;100363.56;;;14.67;55.65
71361;BME280;59166;48.908;1.870;2023-04-26T12:15:33;100363.69;;;14.86;55.19
71361;BME280;59166;48.908;1.870;2023-04-26T12:20:35;100360.31;;;14.99;55.85
71361;BME280;59166;48.908;1.870;2023-04-26T12:25:38;100354.13;;;14.88;55.22
71361;BME280;59166;48.908;1.870;2023-04-26T12:30:40;100358.19;;;14.91;56.79
71361;BME280;59166;48.908;1.870;2023-04-26T12:35:41;100360.91;;;14.96;55.89
71361;BME280;59166;48.908;1.870;2023-04-26T12:40:45;100359.97;;;15.06;57.58
71361;BME280;59166;48.908;1.870;2023-04-26T12:45:48;100367.16;;;14.91;57.46
71361;BME280;59166;48.908;1.870;2023-04-26T12:50:48;100370.03;;;15.05;57.76
71361;BME280;59166;48.908;1.870;2023-04-26T12:55:49;100372.47;;;15.07;56.12
71361;BME280;59166;48.908;1.870;2023-04-26T13:00:51;100371.13;;;15.04;55.84
71361;BME280;59166;48.908;1.870;2023-04-26T13:05:52;100367.81;;;15.07;55.31
71361;BME280;59166;48.908;1.870;2023-04-26T13:10:53;100370.09;;;15.24;55.33
71361;BME280;59166;48.908;1.870;2023-04-26T13:15:56;100360.78;;;15.30;55.22
71361;BME280;59166;48.908;1.870;2023-04-26T13:20:56;100354.41;;;15.39;54.72
71361;BME280;59166;48.908;1.870;2023-04-26T13:25:57;100351.34;;;15.22;56.17
71361;BME280;59166;48.908;1.870;2023-04-26T13:30:59;100353.50;;;15.25;55.86
71361;BME280;59166;48.908;1.870;2023-04-26T13:36:02;100349.09;;;15.29;54.95
71361;BME280;59166;48.908;1.870;2023-04-26T13:41:03;100350.22;;;15.23;55.33
71361;BME280;59166;48.908;1.870;2023-04-26T13:46:05;100353.53;;;15.20;55.21
71361;BME280;59166;48.908;1.870;2023-04-26T13:51:06;100357.19;;;15.11;55.42
71361;BME280;59166;48.908;1.870;2023-04-26T13:56:07;100351.00;;;15.05;55.95
71361;BME280;59166;48.908;1.870;2023-04-26T14:01:12;100354.28;;;15.02;56.50
71361;BME280;59166;48.908;1.870;2023-04-26T14:06:15;100351.34;;;14.99;58.33
71361;BME280;59166;48.908;1.870;2023-04-26T14:11:16;100355.97;;;14.93;56.81
71361;BME280;59166;48.908;1.870;2023-04-26T14:16:18;100352.50;;;14.87;56.96
71361;BME280;59166;48.908;1.870;2023-04-26T14:21:19;100343.25;;;14.88;57.74
71361;BME280;59166;48.908;1.870;2023-04-26T14:26:20;100341.38;;;14.84;57.17
71361;BME280;59166;48.908;1.870;2023-04-26T14:31:22;100336.28;;;14.77;59.34
71361;BME280;59166;48.908;1.870;2023-04-26T14:36:23;100332.47;;;14.78;60.08
71361;BME280;59166;48.908;1.870;2023-04-26T14:41:24;100334.19;;;14.69;58.75
71361;BME280;59166;48.908;1.870;2023-04-26T14:46:26;100336.69;;;14.66;59.70
71361;BME280;59166;48.908;1.870;2023-04-26T14:51:27;100338.38;;;14.57;59.72
71361;BME280;59166;48.908;1.870;2023-04-26T14:56:34;100325.41;;;14.49;60.83
71361;BME280;59166;48.908;1.870;2023-04-26T15:01:37;100332.75;;;14.48;60.63
71361;BME280;59166;48.908;1.870;2023-04-26T15:06:38;100332.53;;;14.45;61.27
71361;BME280;59166;48.908;1.870;2023-04-26T15:11:38;100321.41;;;14.41;61.48
71361;BME280;59166;48.908;1.870;2023-04-26T15:16:41;100311.00;;;14.48;63.54
71361;BME280;59166;48.908;1.870;2023-04-26T15:21:41;100313.50;;;14.45;63.15
71361;BME280;59166;48.908;1.870;2023-04-26T15:26:42;100315.13;;;14.46;62.53
71361;BME280;59166;48.908;1.870;2023-04-26T15:31:44;100309.88;;;14.54;61.64
71361;BME280;59166;48.908;1.870;2023-04-26T15:36:45;100315.03;;;14.56;61.29
71361;BME280;59166;48.908;1.870;2023-04-26T15:41:46;100317.22;;;14.54;64.02
71361;BME280;59166;48.908;1.870;2023-04-26T15:46:48;100311.97;;;14.62;65.51
71361;BME280;59166;48.908;1.870;2023-04-26T15:51:49;100311.63;;;14.69;62.94
71361;BME280;59166;48.908;1.870;2023-04-26T15:56:50;100318.69;;;14.70;62.47
71361;BME280;59166;48.908;1.870;2023-04-26T16:01:52;100316.06;;;14.60;60.36
71361;BME280;59166;48.908;1.870;2023-04-26T16:06:53;100322.47;;;14.45;61.43
71361;BME280;59166;48.908;1.870;2023-04-26T16:11:54;100333.34;;;14.45;56.80
71361;BME280;59166;48.908;1.870;2023-04-26T16:16:56;100328.59;;;14.27;60.08
71361;BME280;59166;48.908;1.870;2023-04-26T16:21:57;100330.22;;;14.28;58.81
71361;BME280;59166;48.908;1.870;2023-04-26T16:26:57;100334.53;;;14.29;57.84
71361;BME280;59166;48.908;1.870;2023-04-26T16:32:00;100328.91;;;14.20;57.67
71361;BME280;59166;48.908;1.870;2023-04-26T16:37:00;100338.63;;;14.26;56.97
71361;BME280;59166;48.908;1.870;2023-04-26T16:42:01;100337.56;;;14.27;55.63
71361;BME280;59166;48.908;1.870;2023-04-26T16:47:03;100330.06;;;14.09;59.05
71361;BME280;59166;48.908;1.870;2023-04-26T16:52:04;100339.34;;;14.08;60.61
71361;BME280;59166;48.908;1.870;2023-04-26T16:57:05;100344.28;;;13.96;59.50
71361;BME280;59166;48.908;1.870;2023-04-26T17:02:07;100345.44;;;13.85;59.52
71361;BME280;59166;48.908;1.870;2023-04-26T17:07:08;100334.06;;;13.83;60.44
71361;BME280;59166;48.908;1.870;2023-04-26T17:12:09;100338.97;;;13.76;61.45
71361;BME280;59166;48.908;1.870;2023-04-26T17:17:11;100337.38;;;13.70;62.38
71361;BME280;59166;48.908;1.870;2023-04-26T17:22:12;100332.50;;;13.67;66.72
71361;BME280;59166;48.908;1.870;2023-04-26T17:27:13;100331.41;;;13.63;62.71
71361;BME280;59166;48.908;1.870;2023-04-26T17:32:15;100339.91;;;13.41;61.27
71361;BME280;59166;48.908;1.870;2023-04-26T17:37:16;100348.41;;;13.29;64.36
71361;BME280;59166;48.908;1.870;2023-04-26T17:42:16;100353.31;;;13.22;64.65
71361;BME280;59166;48.908;1.870;2023-04-26T17:47:18;100352.78;;;13.20;67.37
71361;BME280;59166;48.908;1.870;2023-04-26T17:52:19;100360.38;;;13.08;68.14
71361;BME280;59166;48.908;1.870;2023-04-26T17:57:20;100361.00;;;12.90;69.33
71361;BME280;59166;48.908;1.870;2023-04-26T18:02:24;100356.13;;;12.72;70.53
71361;BME280;59166;48.908;1.870;2023-04-26T18:07:26;100366.44;;;12.70;71.51
71361;BME280;59166;48.908;1.870;2023-04-26T18:12:27;100367.50;;;12.64;71.62
71361;BME280;59166;48.908;1.870;2023-04-26T18:17:30;100375.63;;;12.54;72.43
71361;BME280;59166;48.908;1.870;2023-04-26T18:22:30;100369.69;;;12.52;73.22
71361;BME280;59166;48.908;1.870;2023-04-26T18:27:31;100369.69;;;12.52;72.81
71361;BME280;59166;48.908;1.870;2023-04-26T18:32:35;100365.34;;;12.51;73.77
71361;BME280;59166;48.908;1.870;2023-04-26T18:37:36;100359.41;;;12.59;73.47
71361;BME280;59166;48.908;1.870;2023-04-26T18:42:37;100363.19;;;12.48;73.04
71361;BME280;59166;48.908;1.870;2023-04-26T18:47:40;100356.69;;;12.44;73.78
71361;BME280;59166;48.908;1.870;2023-04-26T18:52:41;100354.50;;;12.41;72.93
71361;BME280;59166;48.908;1.870;2023-04-26T18:57:42;100358.03;;;12.41;73.13
71361;BME280;59166;48.908;1.870;2023-04-26T19:02:45;100370.72;;;12.20;75.75
71361;BME280;59166;48.908;1.870;2023-04-26T19:07:46;100365.59;;;12.24;75.68
71361;BME280;59166;48.908;1.870;2023-04-26T19:12:46;100374.78;;;12.28;74.62
71361;BME280;59166;48.908;1.870;2023-04-26T19:17:49;100376.69;;;12.27;74.86
71361;BME280;59166;48.908;1.870;2023-04-26T19:22:49;100379.41;;;12.22;74.09
71361;BME280;59166;48.908;1.870;2023-04-26T19:27:50;100381.28;;;12.12;75.72
71361;BME280;59166;48.908;1.870;2023-04-26T19:32:52;100377.19;;;12.09;76.97
71361;BME280;59166;48.908;1.870;2023-04-26T19:37:53;100382.63;;;12.04;76.38
71361;BME280;59166;48.908;1.870;2023-04-26T19:42:54;100386.69;;;12.07;76.48
71361;BME280;59166;48.908;1.870;2023-04-26T19:47:56;100385.59;;;12.13;77.08
71361;BME280;59166;48.908;1.870;2023-04-26T19:52:57;100394.28;;;12.20;78.71
71361;BME280;59166;48.908;1.870;2023-04-26T19:57:58;100391.84;;;12.18;78.39
71361;BME280;59166;48.908;1.870;2023-04-26T20:03:00;100402.69;;;12.18;79.01
71361;BME280;59166;48.908;1.870;2023-04-26T20:08:01;100414.06;;;12.20;78.45
71361;BME280;59166;48.908;1.870;2023-04-26T20:13:02;100427.56;;;12.10;82.00
71361;BME280;59166;48.908;1.870;2023-04-26T20:18:04;100431.31;;;11.99;81.13
71361;BME280;59166;48.908;1.870;2023-04-26T20:23:05;100432.69;;;11.97;83.80
71361;BME280;59166;48.908;1.870;2023-04-26T20:28:05;100424.84;;;11.95;83.37
71361;BME280;59166;48.908;1.870;2023-04-26T20:33:08;100433.50;;;11.97;84.36
71361;BME280;59166;48.908;1.870;2023-04-26T20:38:08;100424.84;;;11.95;84.75
71361;BME280;59166;48.908;1.870;2023-04-26T20:43:09;100433.72;;;11.85;85.56
71361;BME280;59166;48.908;1.870;2023-04-26T20:48:11;100431.78;;;11.76;87.52
71361;BME280;59166;48.908;1.870;2023-04-26T20:53:12;100433.28;;;11.52;89.56
71361;BME280;59166;48.908;1.870;2023-04-26T20:58:13;100433.88;;;11.54;90.40
71361;BME280;59166;48.908;1.870;2023-04-26T21:03:15;100448.47;;;11.53;90.39
71361;BME280;59166;48.908;1.870;2023-04-26T21:08:16;100442.22;;;11.52;91.71
71361;BME280;59166;48.908;1.870;2023-04-26T21:13:17;100439.53;;;11.52;91.68
71361;BME280;59166;48.908;1.870;2023-04-26T21:18:19;100446.56;;;11.48;92.12
71361;BME280;59166;48.908;1.870;2023-04-26T21:23:19;100438.09;;;11.34;92.45
71361;BME280;59166;48.908;1.870;2023-04-26T21:28:20;100447.81;;;11.35;90.27
71361;BME280;59166;48.908;1.870;2023-04-26T21:33:23;100433.22;;;11.36;88.60
71361;BME280;59166;48.908;1.870;2023-04-26T21:38:23;100447.56;;;11.37;92.51
71361;BME280;59166;48.908;1.870;2023-04-26T21:43:24;100441.53;;;11.25;91.56
71361;BME280;59166;48.908;1.870;2023-04-26T21:48:26;100437.53;;;11.27;92.39
71361;BME280;59166;48.908;1.870;2023-04-26T21:53:27;100438.34;;;11.33;89.63
71361;BME280;59166;48.908;1.870;2023-04-26T21:58:28;100435.41;;;11.34;90.16
71361;BME280;59166;48.908;1.870;2023-04-26T22:03:30;100445.69;;;11.38;91.55
71361;BME280;59166;48.908;1.870;2023-04-26T22:08:31;100433.19;;;11.31;90.45
71361;BME280;59166;48.908;1.870;2023-04-26T22:13:32;100435.34;;;11.29;89.40
71361;BME280;59166;48.908;1.870;2023-04-26T22:18:34;100428.88;;;11.30;91.48
71361;BME280;59166;48.908;1.870;2023-04-26T22:23:35;100437.53;;;11.27;92.01
71361;BME280;59166;48.908;1.870;2023-04-26T22:28:36;100440.16;;;11.17;90.87
71361;BME280;59166;48.908;1.870;2023-04-26T22:33:38;100437.97;;;11.14;91.83
71361;BME280;59166;48.908;1.870;2023-04-26T22:38:39;100435.28;;;11.14;93.86
71361;BME280;59166;48.908;1.870;2023-04-26T22:43:39;100441.47;;;11.15;89.69
71361;BME280;59166;48.908;1.870;2023-04-26T22:48:41;100447.47;;;11.22;91.10
71361;BME280;59166;48.908;1.870;2023-04-26T22:53:42;100447.75;;;11.20;92.31
71361;BME280;59166;48.908;1.870;2023-04-26T22:58:43;100463.09;;;11.10;94.81
71361;BME280;59166;48.908;1.870;2023-04-26T23:03:45;100471.97;;;11.05;95.67
71361;BME280;59166;48.908;1.870;2023-04-26T23:08:46;100471.44;;;11.08;96.78
71361;BME280;59166;48.908;1.870;2023-04-26T23:13:47;100481.72;;;11.06;97.22
71361;BME280;59166;48.908;1.870;2023-04-26T23:18:49;100484.88;;;10.98;95.30
71361;BME280;59166;48.908;1.870;2023-04-26T23:23:50;100497.03;;;10.96;96.52
71361;BME280;59166;48.908;1.870;2023-04-26T23:28:51;100476.75;;;10.93;97.20
71361;BME280;59166;48.908;1.870;2023-04-26T23:33:53;100477.59;;;10.99;96.49
71361;BME280;59166;48.908;1.870;2023-04-26T23:38:54;100471.66;;;11.02;91.91
71361;BME280;59166;48.908;1.870;2023-04-26T23:43:55;100476.31;;;11.06;92.32
71361;BME280;59166;48.908;1.870;2023-04-26T23:48:57;100470.59;;;11.03;91.68
71361;BME280;59166;48.908;1.870;2023-04-26T23:53:58;100481.16;;;11.04;90.90
71361;BME280;59166;48.908;1.870;2023-04-26T23:58:58;100471.94;;;11.00;92.02
